sensor_id;sensor_type;location;lat;lon;timestamp;P1;durP1;ratioP1;P2;durP2;ratioP2
7383;SDS011;3733;47.994;8.820;2024-01-11T00:01:14;77.97;;;25.70;;
7383;SDS011;3733;47.994;8.820;2024-01-11T00:03:39;91.10;;;28.60;;
7383;SDS011;3733;47.994;8.820;2024-01-11T00:06:05;86.73;;;28.20;;
7383;SDS011;3733;47.994;8.820;2024-01-11T00:08:30;78.57;;;27.47;;
7383;SDS011;3733;47.994;8.820;2024-01-11T00:10:56;92.37;;;25.67;;
7383;SDS011;3733;47.994;8.820;2024-01-11T00:13:22;75.60;;;25.60;;
7383;SDS011;3733;47.994;8.820;2024-01-11T00:15:47;88.30;;;27.03;;
7383;SDS011;3733;47.994;8.820;2024-01-11T00:18:13;106.90;;;28.80;;
7383;SDS011;3733;47.994;8.820;2024-01-11T00:20:38;89.63;;;27.47;;
7383;SDS011;3733;47.994;8.820;2024-01-11T00:23:04;109.87;;;29.00;;
7383;SDS011;3733;47.994;8.820;2024-01-11T00:25:30;100.93;;;29.97;;
7383;SDS011;3733;47.994;8.820;2024-01-11T00:27:55;137.07;;;27.30;;
7383;SDS011;3733;47.994;8.820;2024-01-11T00:30:21;94.93;;;26.03;;
7383;SDS011;3733;47.994;8.820;2024-01-11T00:32:48;97.47;;;23.80;;
7383;SDS011;3733;47.994;8.820;2024-01-11T00:35:13;78.23;;;24.00;;
7383;SDS011;3733;47.994;8.820;2024-01-11T00:37:39;129.47;;;27.10;;
7383;SDS011;3733;47.994;8.820;2024-01-11T00:40:05;84.70;;;26.53;;
7383;SDS011;3733;47.994;8.820;2024-01-11T00:42:31;72.30;;;26.07;;
7383;SDS011;3733;47.994;8.820;2024-01-11T00:44:56;61.90;;;24.17;;
7383;SDS011;3733;47.994;8.820;2024-01-11T00:47:22;103.40;;;27.60;;
7383;SDS011;3733;47.994;8.820;2024-01-11T00:49:48;77.57;;;26.70;;
7383;SDS011;3733;47.994;8.820;2024-01-11T00:52:13;85.73;;;27.03;;
7383;SDS011;3733;47.994;8.820;2024-01-11T00:54:39;91.97;;;28.57;;
7383;SDS011;3733;47.994;8.820;2024-01-11T00:57:05;67.10;;;26.47;;
7383;SDS011;3733;47.994;8.820;2024-01-11T00:59:30;75.20;;;27.30;;
7383;SDS011;3733;47.994;8.820;2024-01-11T01:01:56;91.23;;;28.43;;
7383;SDS011;3733;47.994;8.820;2024-01-11T01:04:21;77.03;;;28.67;;
7383;SDS011;3733;47.994;8.820;2024-01-11T01:06:47;78.97;;;28.00;;
7383;SDS011;3733;47.994;8.820;2024-01-11T01:09:13;82.37;;;28.03;;
7383;SDS011;3733;47.994;8.820;2024-01-11T01:11:38;77.77;;;25.97;;
7383;SDS011;3733;47.994;8.820;2024-01-11T01:14:04;86.43;;;27.70;;
7383;SDS011;3733;47.994;8.820;2024-01-11T01:16:30;70.67;;;29.33;;
7383;SDS011;3733;47.994;8.820;2024-01-11T01:18:55;91.50;;;27.47;;
7383;SDS011;3733;47.994;8.820;2024-01-11T01:21:21;87.23;;;28.60;;
7383;SDS011;3733;47.994;8.820;2024-01-11T01:23:47;81.60;;;27.93;;
7383;SDS011;3733;47.994;8.820;2024-01-11T01:26:12;74.43;;;26.30;;
7383;SDS011;3733;47.994;8.820;2024-01-11T01:28:38;96.57;;;28.57;;
7383;SDS011;3733;47.994;8.820;2024-01-11T01:31:05;141.30;;;28.30;;
7383;SDS011;3733;47.994;8.820;2024-01-11T01:33:30;154.47;;;28.90;;
7383;SDS011;3733;47.994;8.820;2024-01-11T01:35:56;103.90;;;28.90;;
7383;SDS011;3733;47.994;8.820;2024-01-11T01:38:22;129.00;;;28.40;;
7383;SDS011;3733;47.994;8.820;2024-01-11T01:40:47;92.23;;;28.10;;
7383;SDS011;3733;47.994;8.820;2024-01-11T01:43:13;89.60;;;25.83;;
7383;SDS011;3733;47.994;8.820;2024-01-11T01:45:38;134.63;;;27.90;;
7383;SDS011;3733;47.994;8.820;2024-01-11T01:48:04;76.43;;;25.83;;
7383;SDS011;3733;47.994;8.820;2024-01-11T01:50:30;97.23;;;27.90;;
7383;SDS011;3733;47.994;8.820;2024-01-11T01:52:56;86.67;;;28.27;;
7383;SDS011;3733;47.994;8.820;2024-01-11T01:55:23;78.73;;;25.90;;
7383;SDS011;3733;47.994;8.820;2024-01-11T01:57:50;92.93;;;26.77;;
7383;SDS011;3733;47.994;8.820;2024-01-11T02:00:17;79.07;;;25.53;;
7383;SDS011;3733;47.994;8.820;2024-01-11T02:02:43;117.67;;;29.63;;
7383;SDS011;3733;47.994;8.820;2024-01-11T02:05:12;119.80;;;29.73;;
7383;SDS011;3733;47.994;8.820;2024-01-11T02:07:39;77.43;;;27.00;;
7383;SDS011;3733;47.994;8.820;2024-01-11T02:10:06;79.10;;;26.57;;
7383;SDS011;3733;47.994;8.820;2024-01-11T02:12:32;139.47;;;28.30;;
7383;SDS011;3733;47.994;8.820;2024-01-11T02:15:00;88.40;;;26.00;;
7383;SDS011;3733;47.994;8.820;2024-01-11T02:17:28;80.60;;;26.30;;
7383;SDS011;3733;47.994;8.820;2024-01-11T02:19:54;89.57;;;24.73;;
7383;SDS011;3733;47.994;8.820;2024-01-11T02:22:31;75.83;;;25.20;;
7383;SDS011;3733;47.994;8.820;2024-01-11T02:24:59;99.17;;;26.90;;
7383;SDS011;3733;47.994;8.820;2024-01-11T02:27:25;89.73;;;25.77;;
7383;SDS011;3733;47.994;8.820;2024-01-11T02:29:50;59.73;;;24.67;;
7383;SDS011;3733;47.994;8.820;2024-01-11T02:32:16;72.93;;;26.03;;
7383;SDS011;3733;47.994;8.820;2024-01-11T02:34:42;60.30;;;21.83;;
7383;SDS011;3733;47.994;8.820;2024-01-11T02:37:08;66.47;;;24.10;;
7383;SDS011;3733;47.994;8.820;2024-01-11T02:39:33;70.33;;;25.10;;
7383;SDS011;3733;47.994;8.820;2024-01-11T02:41:59;219.97;;;27.83;;
7383;SDS011;3733;47.994;8.820;2024-01-11T02:44:25;91.93;;;26.20;;
7383;SDS011;3733;47.994;8.820;2024-01-11T02:46:51;68.00;;;24.07;;
7383;SDS011;3733;47.994;8.820;2024-01-11T02:49:17;75.67;;;25.30;;
7383;SDS011;3733;47.994;8.820;2024-01-11T02:51:42;91.33;;;28.20;;
7383;SDS011;3733;47.994;8.820;2024-01-11T02:54:08;113.53;;;27.27;;
7383;SDS011;3733;47.994;8.820;2024-01-11T02:56:33;105.73;;;28.97;;
7383;SDS011;3733;47.994;8.820;2024-01-11T02:58:59;87.47;;;27.07;;
7383;SDS011;3733;47.994;8.820;2024-01-11T03:01:25;85.70;;;26.33;;
7383;SDS011;3733;47.994;8.820;2024-01-11T03:03:50;65.30;;;25.30;;
7383;SDS011;3733;47.994;8.820;2024-01-11T03:06:16;105.67;;;25.47;;
7383;SDS011;3733;47.994;8.820;2024-01-11T03:08:46;70.93;;;26.63;;
7383;SDS011;3733;47.994;8.820;2024-01-11T03:11:12;62.70;;;27.03;;
7383;SDS011;3733;47.994;8.820;2024-01-11T03:13:38;72.60;;;25.90;;
7383;SDS011;3733;47.994;8.820;2024-01-11T03:16:04;66.40;;;25.10;;
7383;SDS011;3733;47.994;8.820;2024-01-11T03:18:30;75.07;;;28.40;;
7383;SDS011;3733;47.994;8.820;2024-01-11T03:20:56;81.57;;;27.80;;
7383;SDS011;3733;47.994;8.820;2024-01-11T03:23:22;69.93;;;27.57;;
7383;SDS011;3733;47.994;8.820;2024-01-11T03:25:47;80.80;;;27.97;;
7383;SDS011;3733;47.994;8.820;2024-01-11T03:28:13;75.30;;;28.43;;
7383;SDS011;3733;47.994;8.820;2024-01-11T03:30:38;70.80;;;26.07;;
7383;SDS011;3733;47.994;8.820;2024-01-11T03:33:04;84.93;;;24.80;;
7383;SDS011;3733;47.994;8.820;2024-01-11T03:35:30;72.07;;;25.47;;
7383;SDS011;3733;47.994;8.820;2024-01-11T03:37:56;68.03;;;26.00;;
7383;SDS011;3733;47.994;8.820;2024-01-11T03:40:21;97.33;;;26.43;;
7383;SDS011;3733;47.994;8.820;2024-01-11T03:42:47;59.60;;;24.97;;
7383;SDS011;3733;47.994;8.820;2024-01-11T03:45:13;76.03;;;24.70;;
7383;SDS011;3733;47.994;8.820;2024-01-11T03:47:38;67.77;;;24.87;;
7383;SDS011;3733;47.994;8.820;2024-01-11T03:50:04;83.87;;;24.93;;
7383;SDS011;3733;47.994;8.820;2024-01-11T03:52:30;67.70;;;26.33;;
7383;SDS011;3733;47.994;8.820;2024-01-11T03:54:55;139.57;;;28.17;;
7383;SDS011;3733;47.994;8.820;2024-01-11T03:57:21;59.07;;;24.80;;
7383;SDS011;3733;47.994;8.820;2024-01-11T03:59:46;93.07;;;26.63;;
7383;SDS011;3733;47.994;8.820;2024-01-11T04:02:12;67.27;;;26.20;;
7383;SDS011;3733;47.994;8.820;2024-01-11T04:04:37;71.63;;;27.53;;
7383;SDS011;3733;47.994;8.820;2024-01-11T04:07:03;98.33;;;27.50;;
7383;SDS011;3733;47.994;8.820;2024-01-11T04:09:29;72.87;;;24.73;;
7383;SDS011;3733;47.994;8.820;2024-01-11T04:11:54;133.33;;;28.70;;
7383;SDS011;3733;47.994;8.820;2024-01-11T04:14:20;265.13;;;30.63;;
7383;SDS011;3733;47.994;8.820;2024-01-11T04:16:46;76.13;;;25.53;;
7383;SDS011;3733;47.994;8.820;2024-01-11T04:19:11;76.63;;;26.63;;
7383;SDS011;3733;47.994;8.820;2024-01-11T04:21:37;65.83;;;24.40;;
7383;SDS011;3733;47.994;8.820;2024-01-11T04:24:06;73.43;;;24.70;;
7383;SDS011;3733;47.994;8.820;2024-01-11T04:26:31;68.73;;;25.43;;
7383;SDS011;3733;47.994;8.820;2024-01-11T04:28:57;67.90;;;25.50;;
7383;SDS011;3733;47.994;8.820;2024-01-11T04:31:25;67.47;;;25.77;;
7383;SDS011;3733;47.994;8.820;2024-01-11T04:33:50;77.33;;;27.40;;
7383;SDS011;3733;47.994;8.820;2024-01-11T04:36:16;63.17;;;27.27;;
7383;SDS011;3733;47.994;8.820;2024-01-11T04:38:42;67.17;;;24.70;;
7383;SDS011;3733;47.994;8.820;2024-01-11T04:41:09;67.70;;;25.27;;
7383;SDS011;3733;47.994;8.820;2024-01-11T04:43:37;74.00;;;26.47;;
7383;SDS011;3733;47.994;8.820;2024-01-11T04:46:12;65.93;;;26.93;;
7383;SDS011;3733;47.994;8.820;2024-01-11T04:48:43;65.93;;;26.27;;
7383;SDS011;3733;47.994;8.820;2024-01-11T04:51:10;72.90;;;27.40;;
7383;SDS011;3733;47.994;8.820;2024-01-11T04:53:37;65.93;;;27.27;;
7383;SDS011;3733;47.994;8.820;2024-01-11T04:56:04;71.80;;;27.73;;
7383;SDS011;3733;47.994;8.820;2024-01-11T04:58:31;74.40;;;28.57;;
7383;SDS011;3733;47.994;8.820;2024-01-11T05:00:57;66.40;;;24.97;;
7383;SDS011;3733;47.994;8.820;2024-01-11T05:03:22;77.07;;;26.93;;
7383;SDS011;3733;47.994;8.820;2024-01-11T05:05:48;70.73;;;27.00;;
7383;SDS011;3733;47.994;8.820;2024-01-11T05:08:13;73.30;;;26.60;;
7383;SDS011;3733;47.994;8.820;2024-01-11T05:10:39;69.07;;;27.27;;
7383;SDS011;3733;47.994;8.820;2024-01-11T05:13:05;65.00;;;26.00;;
7383;SDS011;3733;47.994;8.820;2024-01-11T05:15:30;78.40;;;27.50;;
7383;SDS011;3733;47.994;8.820;2024-01-11T05:17:56;66.80;;;26.73;;
7383;SDS011;3733;47.994;8.820;2024-01-11T05:20:22;70.73;;;25.57;;
7383;SDS011;3733;47.994;8.820;2024-01-11T05:22:47;80.00;;;26.30;;
7383;SDS011;3733;47.994;8.820;2024-01-11T05:25:13;74.73;;;26.67;;
7383;SDS011;3733;47.994;8.820;2024-01-11T05:27:39;69.67;;;25.90;;
7383;SDS011;3733;47.994;8.820;2024-01-11T05:30:05;67.47;;;26.40;;
7383;SDS011;3733;47.994;8.820;2024-01-11T05:32:31;166.73;;;27.90;;
7383;SDS011;3733;47.994;8.820;2024-01-11T05:34:57;69.50;;;26.73;;
7383;SDS011;3733;47.994;8.820;2024-01-11T05:37:22;74.03;;;27.70;;
7383;SDS011;3733;47.994;8.820;2024-01-11T05:39:48;74.77;;;26.40;;
7383;SDS011;3733;47.994;8.820;2024-01-11T05:42:13;75.53;;;27.97;;
7383;SDS011;3733;47.994;8.820;2024-01-11T05:44:39;70.20;;;25.80;;
7383;SDS011;3733;47.994;8.820;2024-01-11T05:47:05;69.23;;;26.70;;
7383;SDS011;3733;47.994;8.820;2024-01-11T05:49:31;104.17;;;29.00;;
7383;SDS011;3733;47.994;8.820;2024-01-11T05:51:56;80.83;;;27.20;;
7383;SDS011;3733;47.994;8.820;2024-01-11T05:54:22;81.93;;;27.20;;
7383;SDS011;3733;47.994;8.820;2024-01-11T05:56:48;71.23;;;27.10;;
7383;SDS011;3733;47.994;8.820;2024-01-11T05:59:14;81.30;;;26.83;;
7383;SDS011;3733;47.994;8.820;2024-01-11T06:01:40;65.73;;;25.60;;
7383;SDS011;3733;47.994;8.820;2024-01-11T06:04:07;110.90;;;25.87;;
7383;SDS011;3733;47.994;8.820;2024-01-11T06:06:33;91.53;;;25.33;;
7383;SDS011;3733;47.994;8.820;2024-01-11T06:08:58;104.47;;;27.03;;
7383;SDS011;3733;47.994;8.820;2024-01-11T06:11:24;65.33;;;25.43;;
7383;SDS011;3733;47.994;8.820;2024-01-11T06:13:50;61.73;;;25.40;;
7383;SDS011;3733;47.994;8.820;2024-01-11T06:16:15;71.13;;;26.70;;
7383;SDS011;3733;47.994;8.820;2024-01-11T06:18:41;68.60;;;25.53;;
7383;SDS011;3733;47.994;8.820;2024-01-11T06:21:06;68.27;;;25.60;;
7383;SDS011;3733;47.994;8.820;2024-01-11T06:23:32;100.30;;;28.50;;
7383;SDS011;3733;47.994;8.820;2024-01-11T06:25:57;68.57;;;24.97;;
7383;SDS011;3733;47.994;8.820;2024-01-11T06:28:23;64.20;;;25.93;;
7383;SDS011;3733;47.994;8.820;2024-01-11T06:30:49;83.30;;;26.87;;
7383;SDS011;3733;47.994;8.820;2024-01-11T06:33:14;69.10;;;27.63;;
7383;SDS011;3733;47.994;8.820;2024-01-11T06:35:40;102.60;;;27.17;;
7383;SDS011;3733;47.994;8.820;2024-01-11T06:38:05;87.20;;;30.03;;
7383;SDS011;3733;47.994;8.820;2024-01-11T06:40:31;74.83;;;28.13;;
7383;SDS011;3733;47.994;8.820;2024-01-11T06:42:57;80.77;;;29.80;;
7383;SDS011;3733;47.994;8.820;2024-01-11T06:45:22;69.83;;;26.17;;
7383;SDS011;3733;47.994;8.820;2024-01-11T06:47:48;73.47;;;27.50;;
7383;SDS011;3733;47.994;8.820;2024-01-11T06:50:14;83.00;;;27.30;;
7383;SDS011;3733;47.994;8.820;2024-01-11T06:52:39;72.10;;;26.90;;
7383;SDS011;3733;47.994;8.820;2024-01-11T06:55:05;75.33;;;28.17;;
7383;SDS011;3733;47.994;8.820;2024-01-11T06:57:31;76.70;;;28.50;;
7383;SDS011;3733;47.994;8.820;2024-01-11T06:59:57;80.70;;;27.80;;
7383;SDS011;3733;47.994;8.820;2024-01-11T07:02:22;71.10;;;28.23;;
7383;SDS011;3733;47.994;8.820;2024-01-11T07:04:48;81.37;;;28.20;;
7383;SDS011;3733;47.994;8.820;2024-01-11T07:07:13;84.80;;;30.57;;
7383;SDS011;3733;47.994;8.820;2024-01-11T07:09:39;74.73;;;27.93;;
7383;SDS011;3733;47.994;8.820;2024-01-11T07:12:05;82.43;;;28.37;;
7383;SDS011;3733;47.994;8.820;2024-01-11T07:14:30;72.43;;;28.43;;
7383;SDS011;3733;47.994;8.820;2024-01-11T07:16:57;68.70;;;27.00;;
7383;SDS011;3733;47.994;8.820;2024-01-11T07:19:22;73.97;;;27.67;;
7383;SDS011;3733;47.994;8.820;2024-01-11T07:21:48;77.67;;;28.60;;
7383;SDS011;3733;47.994;8.820;2024-01-11T07:24:13;79.17;;;29.83;;
7383;SDS011;3733;47.994;8.820;2024-01-11T07:26:40;79.40;;;29.30;;
7383;SDS011;3733;47.994;8.820;2024-01-11T07:29:06;107.93;;;32.93;;
7383;SDS011;3733;47.994;8.820;2024-01-11T07:31:32;86.43;;;30.53;;
7383;SDS011;3733;47.994;8.820;2024-01-11T07:33:58;71.03;;;28.73;;
7383;SDS011;3733;47.994;8.820;2024-01-11T07:36:24;84.50;;;29.70;;
7383;SDS011;3733;47.994;8.820;2024-01-11T07:38:50;88.93;;;28.10;;
7383;SDS011;3733;47.994;8.820;2024-01-11T07:41:15;124.20;;;31.63;;
7383;SDS011;3733;47.994;8.820;2024-01-11T07:43:41;100.20;;;31.23;;
7383;SDS011;3733;47.994;8.820;2024-01-11T07:46:08;77.97;;;28.37;;
7383;SDS011;3733;47.994;8.820;2024-01-11T07:48:34;76.30;;;29.17;;
7383;SDS011;3733;47.994;8.820;2024-01-11T07:51:00;128.43;;;28.10;;
7383;SDS011;3733;47.994;8.820;2024-01-11T07:53:25;83.27;;;30.20;;
7383;SDS011;3733;47.994;8.820;2024-01-11T07:55:51;100.10;;;31.00;;
7383;SDS011;3733;47.994;8.820;2024-01-11T07:58:17;94.67;;;29.37;;
7383;SDS011;3733;47.994;8.820;2024-01-11T08:00:43;96.17;;;29.87;;
7383;SDS011;3733;47.994;8.820;2024-01-11T08:03:10;79.20;;;28.37;;
7383;SDS011;3733;47.994;8.820;2024-01-11T08:05:35;109.63;;;30.77;;
7383;SDS011;3733;47.994;8.820;2024-01-11T08:08:01;104.87;;;30.47;;
7383;SDS011;3733;47.994;8.820;2024-01-11T08:10:28;79.63;;;31.73;;
7383;SDS011;3733;47.994;8.820;2024-01-11T08:12:55;81.20;;;32.00;;
7383;SDS011;3733;47.994;8.820;2024-01-11T08:15:21;115.80;;;32.30;;
7383;SDS011;3733;47.994;8.820;2024-01-11T08:17:47;86.43;;;30.10;;
7383;SDS011;3733;47.994;8.820;2024-01-11T08:20:13;119.60;;;31.07;;
7383;SDS011;3733;47.994;8.820;2024-01-11T08:22:39;100.53;;;31.67;;
7383;SDS011;3733;47.994;8.820;2024-01-11T08:25:08;105.50;;;33.00;;
7383;SDS011;3733;47.994;8.820;2024-01-11T08:27:34;115.70;;;34.97;;
7383;SDS011;3733;47.994;8.820;2024-01-11T08:30:01;113.27;;;29.07;;
7383;SDS011;3733;47.994;8.820;2024-01-11T08:32:27;95.30;;;31.87;;
7383;SDS011;3733;47.994;8.820;2024-01-11T08:34:53;94.57;;;28.40;;
7383;SDS011;3733;47.994;8.820;2024-01-11T08:37:19;92.23;;;30.80;;
7383;SDS011;3733;47.994;8.820;2024-01-11T08:39:44;86.70;;;30.63;;
7383;SDS011;3733;47.994;8.820;2024-01-11T08:42:11;87.93;;;31.37;;
7383;SDS011;3733;47.994;8.820;2024-01-11T08:44:40;98.17;;;31.40;;
7383;SDS011;3733;47.994;8.820;2024-01-11T08:47:10;84.57;;;28.97;;
7383;SDS011;3733;47.994;8.820;2024-01-11T08:49:36;92.97;;;29.90;;
7383;SDS011;3733;47.994;8.820;2024-01-11T08:52:04;80.07;;;31.17;;
7383;SDS011;3733;47.994;8.820;2024-01-11T08:54:30;109.57;;;29.10;;
7383;SDS011;3733;47.994;8.820;2024-01-11T08:56:57;89.57;;;30.70;;
7383;SDS011;3733;47.994;8.820;2024-01-11T08:59:23;93.80;;;32.30;;
7383;SDS011;3733;47.994;8.820;2024-01-11T09:01:50;85.63;;;31.23;;
7383;SDS011;3733;47.994;8.820;2024-01-11T09:04:16;88.63;;;31.90;;
7383;SDS011;3733;47.994;8.820;2024-01-11T09:06:42;89.60;;;33.50;;
7383;SDS011;3733;47.994;8.820;2024-01-11T09:09:08;98.07;;;31.53;;
7383;SDS011;3733;47.994;8.820;2024-01-11T09:11:35;77.47;;;28.87;;
7383;SDS011;3733;47.994;8.820;2024-01-11T09:14:00;82.63;;;31.10;;
7383;SDS011;3733;47.994;8.820;2024-01-11T09:16:28;87.00;;;30.90;;
7383;SDS011;3733;47.994;8.820;2024-01-11T09:18:53;91.07;;;30.73;;
7383;SDS011;3733;47.994;8.820;2024-01-11T09:21:19;78.30;;;31.27;;
7383;SDS011;3733;47.994;8.820;2024-01-11T09:23:45;96.10;;;32.33;;
7383;SDS011;3733;47.994;8.820;2024-01-11T09:26:10;85.60;;;31.80;;
7383;SDS011;3733;47.994;8.820;2024-01-11T09:28:37;76.03;;;31.60;;
7383;SDS011;3733;47.994;8.820;2024-01-11T09:31:03;91.10;;;31.20;;
7383;SDS011;3733;47.994;8.820;2024-01-11T09:33:29;84.80;;;31.33;;
7383;SDS011;3733;47.994;8.820;2024-01-11T09:35:54;88.17;;;31.43;;
7383;SDS011;3733;47.994;8.820;2024-01-11T09:38:21;100.57;;;31.47;;
7383;SDS011;3733;47.994;8.820;2024-01-11T09:40:48;80.93;;;30.97;;
7383;SDS011;3733;47.994;8.820;2024-01-11T09:43:28;83.77;;;32.97;;
7383;SDS011;3733;47.994;8.820;2024-01-11T09:45:54;83.63;;;33.17;;
7383;SDS011;3733;47.994;8.820;2024-01-11T09:48:21;88.33;;;31.20;;
7383;SDS011;3733;47.994;8.820;2024-01-11T09:50:49;88.97;;;33.10;;
7383;SDS011;3733;47.994;8.820;2024-01-11T09:53:17;84.63;;;30.63;;
7383;SDS011;3733;47.994;8.820;2024-01-11T09:55:45;89.90;;;31.57;;
7383;SDS011;3733;47.994;8.820;2024-01-11T09:58:12;79.80;;;32.37;;
7383;SDS011;3733;47.994;8.820;2024-01-11T10:00:39;72.27;;;30.10;;
7383;SDS011;3733;47.994;8.820;2024-01-11T10:03:06;88.00;;;31.83;;
7383;SDS011;3733;47.994;8.820;2024-01-11T10:05:32;70.30;;;30.87;;
7383;SDS011;3733;47.994;8.820;2024-01-11T10:08:00;88.70;;;30.37;;
7383;SDS011;3733;47.994;8.820;2024-01-11T10:10:26;81.27;;;31.53;;
7383;SDS011;3733;47.994;8.820;2024-01-11T10:12:53;84.90;;;33.63;;
7383;SDS011;3733;47.994;8.820;2024-01-11T10:15:21;95.30;;;34.13;;
7383;SDS011;3733;47.994;8.820;2024-01-11T10:17:49;79.97;;;32.23;;
7383;SDS011;3733;47.994;8.820;2024-01-11T10:20:15;86.57;;;32.37;;
7383;SDS011;3733;47.994;8.820;2024-01-11T10:22:42;84.07;;;34.07;;
7383;SDS011;3733;47.994;8.820;2024-01-11T10:25:12;85.10;;;33.10;;
7383;SDS011;3733;47.994;8.820;2024-01-11T10:27:41;82.60;;;33.00;;
7383;SDS011;3733;47.994;8.820;2024-01-11T10:30:09;87.23;;;31.23;;
7383;SDS011;3733;47.994;8.820;2024-01-11T10:32:35;86.47;;;34.60;;
7383;SDS011;3733;47.994;8.820;2024-01-11T10:35:01;88.50;;;35.17;;
7383;SDS011;3733;47.994;8.820;2024-01-11T10:37:30;82.87;;;33.50;;
7383;SDS011;3733;47.994;8.820;2024-01-11T10:40:02;94.90;;;34.53;;
7383;SDS011;3733;47.994;8.820;2024-01-11T10:42:34;98.80;;;36.10;;
7383;SDS011;3733;47.994;8.820;2024-01-11T10:45:03;87.23;;;34.57;;
7383;SDS011;3733;47.994;8.820;2024-01-11T10:47:32;80.20;;;32.83;;
7383;SDS011;3733;47.994;8.820;2024-01-11T10:50:00;79.03;;;33.33;;
7383;SDS011;3733;47.994;8.820;2024-01-11T10:52:37;93.30;;;34.97;;
7383;SDS011;3733;47.994;8.820;2024-01-11T10:55:13;81.83;;;32.53;;
7383;SDS011;3733;47.994;8.820;2024-01-11T10:57:39;73.87;;;31.13;;
7383;SDS011;3733;47.994;8.820;2024-01-11T11:00:06;85.50;;;33.03;;
7383;SDS011;3733;47.994;8.820;2024-01-11T11:02:36;85.03;;;32.60;;
7383;SDS011;3733;47.994;8.820;2024-01-11T11:05:02;62.57;;;30.07;;
7383;SDS011;3733;47.994;8.820;2024-01-11T11:07:30;75.83;;;32.20;;
7383;SDS011;3733;47.994;8.820;2024-01-11T11:09:57;67.63;;;29.87;;
7383;SDS011;3733;47.994;8.820;2024-01-11T11:12:24;71.80;;;30.10;;
7383;SDS011;3733;47.994;8.820;2024-01-11T11:14:50;71.10;;;30.80;;
7383;SDS011;3733;47.994;8.820;2024-01-11T11:17:18;68.80;;;29.57;;
7383;SDS011;3733;47.994;8.820;2024-01-11T11:19:43;69.27;;;27.90;;
7383;SDS011;3733;47.994;8.820;2024-01-11T11:22:09;66.90;;;28.43;;
7383;SDS011;3733;47.994;8.820;2024-01-11T11:24:40;59.43;;;26.67;;
7383;SDS011;3733;47.994;8.820;2024-01-11T11:27:05;57.30;;;26.40;;
7383;SDS011;3733;47.994;8.820;2024-01-11T11:29:32;62.23;;;26.80;;
7383;SDS011;3733;47.994;8.820;2024-01-11T11:31:57;64.00;;;26.47;;
7383;SDS011;3733;47.994;8.820;2024-01-11T11:34:40;58.47;;;27.97;;
7383;SDS011;3733;47.994;8.820;2024-01-11T11:37:07;56.33;;;24.83;;
7383;SDS011;3733;47.994;8.820;2024-01-11T11:39:34;60.23;;;26.67;;
7383;SDS011;3733;47.994;8.820;2024-01-11T11:42:00;69.80;;;31.23;;
7383;SDS011;3733;47.994;8.820;2024-01-11T11:44:26;72.50;;;33.90;;
7383;SDS011;3733;47.994;8.820;2024-01-11T11:46:52;78.87;;;34.93;;
7383;SDS011;3733;47.994;8.820;2024-01-11T11:49:18;69.60;;;32.30;;
7383;SDS011;3733;47.994;8.820;2024-01-11T11:51:44;75.20;;;34.37;;
7383;SDS011;3733;47.994;8.820;2024-01-11T11:54:09;93.77;;;40.40;;
7383;SDS011;3733;47.994;8.820;2024-01-11T11:56:36;87.10;;;38.10;;
7383;SDS011;3733;47.994;8.820;2024-01-11T11:59:02;76.93;;;34.13;;
7383;SDS011;3733;47.994;8.820;2024-01-11T12:01:28;64.37;;;30.40;;
7383;SDS011;3733;47.994;8.820;2024-01-11T12:03:56;51.87;;;23.40;;
7383;SDS011;3733;47.994;8.820;2024-01-11T12:06:22;48.80;;;23.23;;
7383;SDS011;3733;47.994;8.820;2024-01-11T12:08:49;52.13;;;23.70;;
7383;SDS011;3733;47.994;8.820;2024-01-11T12:11:18;50.07;;;21.50;;
7383;SDS011;3733;47.994;8.820;2024-01-11T12:13:45;48.37;;;21.67;;
7383;SDS011;3733;47.994;8.820;2024-01-11T12:16:12;39.83;;;20.87;;
7383;SDS011;3733;47.994;8.820;2024-01-11T12:18:38;43.93;;;21.07;;
7383;SDS011;3733;47.994;8.820;2024-01-11T12:21:04;46.83;;;21.13;;
7383;SDS011;3733;47.994;8.820;2024-01-11T12:23:30;44.17;;;19.40;;
7383;SDS011;3733;47.994;8.820;2024-01-11T12:25:58;40.67;;;17.93;;
7383;SDS011;3733;47.994;8.820;2024-01-11T12:28:25;34.30;;;16.53;;
7383;SDS011;3733;47.994;8.820;2024-01-11T12:30:51;36.10;;;17.10;;
7383;SDS011;3733;47.994;8.820;2024-01-11T12:33:17;37.50;;;17.47;;
7383;SDS011;3733;47.994;8.820;2024-01-11T12:35:43;46.10;;;18.77;;
7383;SDS011;3733;47.994;8.820;2024-01-11T12:38:10;42.20;;;17.27;;
7383;SDS011;3733;47.994;8.820;2024-01-11T12:40:36;33.43;;;16.17;;
7383;SDS011;3733;47.994;8.820;2024-01-11T12:43:05;34.53;;;16.63;;
7383;SDS011;3733;47.994;8.820;2024-01-11T12:45:32;31.73;;;15.90;;
7383;SDS011;3733;47.994;8.820;2024-01-11T12:47:59;35.40;;;17.00;;
7383;SDS011;3733;47.994;8.820;2024-01-11T12:50:28;38.43;;;16.87;;
7383;SDS011;3733;47.994;8.820;2024-01-11T12:53:04;35.77;;;16.40;;
7383;SDS011;3733;47.994;8.820;2024-01-11T12:55:49;73.50;;;28.77;;
7383;SDS011;3733;47.994;8.820;2024-01-11T12:58:27;73.93;;;27.33;;
7383;SDS011;3733;47.994;8.820;2024-01-11T13:00:53;65.27;;;27.13;;
7383;SDS011;3733;47.994;8.820;2024-01-11T13:03:19;62.10;;;27.90;;
7383;SDS011;3733;47.994;8.820;2024-01-11T13:05:48;61.87;;;27.60;;
7383;SDS011;3733;47.994;8.820;2024-01-11T13:08:13;46.60;;;21.70;;
7383;SDS011;3733;47.994;8.820;2024-01-11T13:10:39;68.70;;;28.57;;
7383;SDS011;3733;47.994;8.820;2024-01-11T13:13:05;65.63;;;28.23;;
7383;SDS011;3733;47.994;8.820;2024-01-11T13:15:33;60.53;;;25.87;;
7383;SDS011;3733;47.994;8.820;2024-01-11T13:18:01;52.63;;;23.77;;
7383;SDS011;3733;47.994;8.820;2024-01-11T13:20:27;53.33;;;24.23;;
7383;SDS011;3733;47.994;8.820;2024-01-11T13:25:43;48.67;;;22.10;;
7383;SDS011;3733;47.994;8.820;2024-01-11T13:28:09;52.27;;;21.30;;
7383;SDS011;3733;47.994;8.820;2024-01-11T13:30:42;60.37;;;24.47;;
7383;SDS011;3733;47.994;8.820;2024-01-11T13:33:10;51.03;;;22.27;;
7383;SDS011;3733;47.994;8.820;2024-01-11T13:35:39;58.70;;;25.67;;
7383;SDS011;3733;47.994;8.820;2024-01-11T13:38:06;65.03;;;27.97;;
7383;SDS011;3733;47.994;8.820;2024-01-11T13:40:32;60.90;;;26.97;;
7383;SDS011;3733;47.994;8.820;2024-01-11T13:42:58;69.27;;;27.27;;
7383;SDS011;3733;47.994;8.820;2024-01-11T13:45:27;59.90;;;27.47;;
7383;SDS011;3733;47.994;8.820;2024-01-11T13:47:53;46.37;;;20.30;;
7383;SDS011;3733;47.994;8.820;2024-01-11T13:50:19;45.03;;;20.90;;
7383;SDS011;3733;47.994;8.820;2024-01-11T13:52:45;52.97;;;24.53;;
7383;SDS011;3733;47.994;8.820;2024-01-11T13:55:11;57.80;;;25.33;;
7383;SDS011;3733;47.994;8.820;2024-01-11T13:57:37;47.50;;;21.50;;
7383;SDS011;3733;47.994;8.820;2024-01-11T14:00:04;54.27;;;24.53;;
7383;SDS011;3733;47.994;8.820;2024-01-11T14:02:30;49.20;;;21.23;;
7383;SDS011;3733;47.994;8.820;2024-01-11T14:04:56;52.60;;;23.50;;
7383;SDS011;3733;47.994;8.820;2024-01-11T14:07:22;46.57;;;19.50;;
7383;SDS011;3733;47.994;8.820;2024-01-11T14:09:49;52.70;;;24.00;;
7383;SDS011;3733;47.994;8.820;2024-01-11T14:12:14;50.93;;;22.53;;
7383;SDS011;3733;47.994;8.820;2024-01-11T14:14:40;60.90;;;26.70;;
7383;SDS011;3733;47.994;8.820;2024-01-11T14:17:07;59.33;;;24.93;;
7383;SDS011;3733;47.994;8.820;2024-01-11T14:19:33;56.43;;;25.27;;
7383;SDS011;3733;47.994;8.820;2024-01-11T14:21:59;56.50;;;25.73;;
7383;SDS011;3733;47.994;8.820;2024-01-11T14:24:25;56.33;;;25.40;;
7383;SDS011;3733;47.994;8.820;2024-01-11T14:26:51;64.07;;;26.70;;
7383;SDS011;3733;47.994;8.820;2024-01-11T14:29:17;58.67;;;26.90;;
7383;SDS011;3733;47.994;8.820;2024-01-11T14:31:43;52.87;;;24.60;;
7383;SDS011;3733;47.994;8.820;2024-01-11T14:34:09;60.30;;;26.27;;
7383;SDS011;3733;47.994;8.820;2024-01-11T14:36:35;62.93;;;27.90;;
7383;SDS011;3733;47.994;8.820;2024-01-11T14:39:01;59.57;;;28.63;;
7383;SDS011;3733;47.994;8.820;2024-01-11T14:41:29;77.57;;;31.20;;
7383;SDS011;3733;47.994;8.820;2024-01-11T14:43:56;75.13;;;31.90;;